Bookmark and Share
Track history (hours):
 

Oasis of the Seas

Last reported at 2014-Apr-23 22:32 UTC. Time now 2014-Apr-24 20:10 UTC.
Position N 18°08' W 063°20'.

Length 360 m; draft 9.3 m.

Type: Passenger vessel. MMSI: 311020600.

NotesDate/timePositionNaut miles runAvg speedWind from/ knotsBaromVisibWave heightAir tempDewpointWater temp
2014-Apr-23 22:32N 18°08' W 063°20'1715.2
2014-Apr-23 21:26N 18°00' W 063°04'1 0.1
2014-Apr-23 11:11N 18°00' W 063°05'25 9.3
2014-Apr-23 08:33N 18°01' W 063°31'10 9.5
2014-Apr-23 07:33N 18°01' W 063°41'11 9.5
2014-Apr-23 06:24N 18°02' W 063°52'  
2014-Apr-20 00:00N 26°06' W 079°24'2215.3 290 / 131013.027.0 1.026.023.227.0
2014-Apr-19 22:33N 26°08' W 079°48'1414.2
2014-Apr-19 21:33N 26°06' W 080°04'3 2.7
2014-Apr-19 20:28N 26°05' W 080°07'0 0.0
2014-Apr-19 19:31N 26°05' W 080°07'0 0.0
2014-Apr-19 18:23N 26°05' W 080°07'0 0.0
2014-Apr-19 17:24N 26°05' W 080°07'0 0.0
2014-Apr-19 16:24N 26°05' W 080°07'0 0.0
2014-Apr-19 15:30N 26°05' W 080°07'0 0.0
2014-Apr-19 14:33N 26°05' W 080°07'0 0.0
2014-Apr-19 13:33N 26°05' W 080°07'0 0.0
2014-Apr-19 12:33N 26°05' W 080°07'0 0.0
2014-Apr-19 11:33N 26°05' W 080°07'0 0.0
2014-Apr-19 10:33N 26°05' W 080°07'0 0.1
2014-Apr-19 09:33N 26°05' W 080°07'8 8.0
2014-Apr-19 08:33N 26°01' W 079°60'1413.9
2014-Apr-19 07:33N 25°47' W 079°57'1414.2
2014-Apr-19 06:34N 25°34' W 080°01'  
2014-Apr-14 00:00N 21°06' W 075°00'   080 / 261013.010.8 1.025.022.228.0

Dump ship's entire track history

sailing weather and tide predictions

Oasis of the Seas — C6XS7 — position and weather